sensor_id;sensor_type;location;lat;lon;timestamp;P1;durP1;ratioP1;P2;durP2;ratioP2
56770;SDS011;42641;59.794;17.616;2023-07-30T00:02:15;4.40;;;3.23;;
56770;SDS011;42641;59.794;17.616;2023-07-30T00:04:42;4.60;;;3.13;;
56770;SDS011;42641;59.794;17.616;2023-07-30T00:07:09;6.33;;;3.20;;
56770;SDS011;42641;59.794;17.616;2023-07-30T00:09:37;3.73;;;2.90;;
56770;SDS011;42641;59.794;17.616;2023-07-30T00:12:04;4.93;;;2.73;;
56770;SDS011;42641;59.794;17.616;2023-07-30T00:14:32;3.10;;;2.80;;
56770;SDS011;42641;59.794;17.616;2023-07-30T00:16:58;5.77;;;3.10;;
56770;SDS011;42641;59.794;17.616;2023-07-30T00:19:25;4.77;;;3.30;;
56770;SDS011;42641;59.794;17.616;2023-07-30T00:21:51;3.67;;;3.20;;
56770;SDS011;42641;59.794;17.616;2023-07-30T00:24:18;3.90;;;3.50;;
56770;SDS011;42641;59.794;17.616;2023-07-30T00:26:44;3.33;;;3.03;;
56770;SDS011;42641;59.794;17.616;2023-07-30T00:29:11;3.60;;;3.30;;
56770;SDS011;42641;59.794;17.616;2023-07-30T00:31:37;7.23;;;3.50;;
56770;SDS011;42641;59.794;17.616;2023-07-30T00:34:04;3.43;;;3.03;;
56770;SDS011;42641;59.794;17.616;2023-07-30T00:36:30;4.17;;;3.00;;
56770;SDS011;42641;59.794;17.616;2023-07-30T00:38:57;4.07;;;3.60;;
56770;SDS011;42641;59.794;17.616;2023-07-30T00:41:23;4.20;;;3.47;;
56770;SDS011;42641;59.794;17.616;2023-07-30T00:43:50;4.57;;;3.63;;
56770;SDS011;42641;59.794;17.616;2023-07-30T00:46:16;6.47;;;3.33;;
56770;SDS011;42641;59.794;17.616;2023-07-30T00:48:43;4.83;;;3.43;;
56770;SDS011;42641;59.794;17.616;2023-07-30T00:51:10;4.60;;;3.33;;
56770;SDS011;42641;59.794;17.616;2023-07-30T00:53:40;5.37;;;3.50;;
56770;SDS011;42641;59.794;17.616;2023-07-30T00:56:07;3.70;;;3.40;;
56770;SDS011;42641;59.794;17.616;2023-07-30T00:58:34;6.63;;;3.80;;
56770;SDS011;42641;59.794;17.616;2023-07-30T01:01:02;5.10;;;3.27;;
56770;SDS011;42641;59.794;17.616;2023-07-30T01:03:28;5.20;;;3.57;;
56770;SDS011;42641;59.794;17.616;2023-07-30T01:05:55;3.50;;;3.20;;
56770;SDS011;42641;59.794;17.616;2023-07-30T01:08:22;6.53;;;3.40;;
56770;SDS011;42641;59.794;17.616;2023-07-30T01:10:48;3.50;;;3.20;;
56770;SDS011;42641;59.794;17.616;2023-07-30T01:13:16;4.50;;;3.30;;
56770;SDS011;42641;59.794;17.616;2023-07-30T01:15:43;4.03;;;3.07;;
56770;SDS011;42641;59.794;17.616;2023-07-30T01:18:10;4.23;;;3.53;;
56770;SDS011;42641;59.794;17.616;2023-07-30T01:20:37;3.77;;;3.47;;
56770;SDS011;42641;59.794;17.616;2023-07-30T01:23:03;5.20;;;3.40;;
56770;SDS011;42641;59.794;17.616;2023-07-30T01:25:30;5.17;;;3.80;;
56770;SDS011;42641;59.794;17.616;2023-07-30T01:28:01;4.10;;;3.43;;
56770;SDS011;42641;59.794;17.616;2023-07-30T01:30:36;4.57;;;3.57;;
56770;SDS011;42641;59.794;17.616;2023-07-30T01:33:06;3.97;;;3.57;;
56770;SDS011;42641;59.794;17.616;2023-07-30T01:35:33;4.40;;;3.70;;
56770;SDS011;42641;59.794;17.616;2023-07-30T01:38:02;5.03;;;3.87;;
56770;SDS011;42641;59.794;17.616;2023-07-30T01:40:31;3.97;;;3.57;;
56770;SDS011;42641;59.794;17.616;2023-07-30T01:42:58;4.97;;;3.60;;
56770;SDS011;42641;59.794;17.616;2023-07-30T01:45:25;4.20;;;3.77;;
56770;SDS011;42641;59.794;17.616;2023-07-30T01:47:51;4.30;;;3.90;;
56770;SDS011;42641;59.794;17.616;2023-07-30T01:50:18;7.33;;;3.47;;
56770;SDS011;42641;59.794;17.616;2023-07-30T01:52:45;6.60;;;4.23;;
56770;SDS011;42641;59.794;17.616;2023-07-30T01:55:11;5.37;;;3.60;;
56770;SDS011;42641;59.794;17.616;2023-07-30T01:57:38;4.53;;;3.87;;
56770;SDS011;42641;59.794;17.616;2023-07-30T02:00:05;5.20;;;3.77;;
56770;SDS011;42641;59.794;17.616;2023-07-30T02:02:32;3.73;;;3.07;;
56770;SDS011;42641;59.794;17.616;2023-07-30T02:05:01;4.90;;;3.90;;
56770;SDS011;42641;59.794;17.616;2023-07-30T02:07:28;3.53;;;3.23;;
56770;SDS011;42641;59.794;17.616;2023-07-30T02:09:54;4.73;;;3.77;;
56770;SDS011;42641;59.794;17.616;2023-07-30T02:12:21;3.50;;;3.20;;
56770;SDS011;42641;59.794;17.616;2023-07-30T02:14:48;3.80;;;3.50;;
56770;SDS011;42641;59.794;17.616;2023-07-30T02:17:14;3.50;;;3.20;;
56770;SDS011;42641;59.794;17.616;2023-07-30T02:19:41;6.00;;;3.60;;
56770;SDS011;42641;59.794;17.616;2023-07-30T02:22:08;4.10;;;3.60;;
56770;SDS011;42641;59.794;17.616;2023-07-30T02:24:34;4.13;;;3.73;;
56770;SDS011;42641;59.794;17.616;2023-07-30T02:27:01;4.40;;;4.00;;
56770;SDS011;42641;59.794;17.616;2023-07-30T02:29:27;4.20;;;3.80;;
56770;SDS011;42641;59.794;17.616;2023-07-30T02:31:54;5.13;;;3.73;;
56770;SDS011;42641;59.794;17.616;2023-07-30T02:34:20;4.30;;;3.90;;
56770;SDS011;42641;59.794;17.616;2023-07-30T02:36:48;4.50;;;3.40;;
56770;SDS011;42641;59.794;17.616;2023-07-30T02:39:15;4.33;;;3.93;;
56770;SDS011;42641;59.794;17.616;2023-07-30T02:41:41;3.93;;;3.53;;
56770;SDS011;42641;59.794;17.616;2023-07-30T02:44:07;4.43;;;4.03;;
56770;SDS011;42641;59.794;17.616;2023-07-30T02:46:34;5.23;;;4.10;;
56770;SDS011;42641;59.794;17.616;2023-07-30T02:49:00;4.17;;;3.77;;
56770;SDS011;42641;59.794;17.616;2023-07-30T02:51:27;4.90;;;4.13;;
56770;SDS011;42641;59.794;17.616;2023-07-30T02:53:56;4.40;;;3.90;;
56770;SDS011;42641;59.794;17.616;2023-07-30T02:56:25;5.20;;;3.87;;
56770;SDS011;42641;59.794;17.616;2023-07-30T02:58:51;4.40;;;4.00;;
56770;SDS011;42641;59.794;17.616;2023-07-30T03:01:18;4.23;;;3.83;;
56770;SDS011;42641;59.794;17.616;2023-07-30T03:03:44;4.80;;;3.90;;
56770;SDS011;42641;59.794;17.616;2023-07-30T03:06:10;4.70;;;3.87;;
56770;SDS011;42641;59.794;17.616;2023-07-30T03:08:37;4.97;;;3.40;;
56770;SDS011;42641;59.794;17.616;2023-07-30T03:11:04;3.90;;;3.60;;
56770;SDS011;42641;59.794;17.616;2023-07-30T03:13:30;3.93;;;3.63;;
56770;SDS011;42641;59.794;17.616;2023-07-30T03:15:57;4.30;;;3.90;;
56770;SDS011;42641;59.794;17.616;2023-07-30T03:18:23;4.70;;;4.20;;
56770;SDS011;42641;59.794;17.616;2023-07-30T03:20:50;4.93;;;3.97;;
56770;SDS011;42641;59.794;17.616;2023-07-30T03:23:16;5.03;;;4.47;;
56770;SDS011;42641;59.794;17.616;2023-07-30T03:25:42;4.03;;;3.60;;
56770;SDS011;42641;59.794;17.616;2023-07-30T03:28:09;4.27;;;3.87;;
56770;SDS011;42641;59.794;17.616;2023-07-30T03:30:35;6.83;;;3.80;;
56770;SDS011;42641;59.794;17.616;2023-07-30T03:33:02;6.13;;;4.10;;
56770;SDS011;42641;59.794;17.616;2023-07-30T03:35:28;4.03;;;3.63;;
56770;SDS011;42641;59.794;17.616;2023-07-30T03:37:55;4.03;;;3.63;;
56770;SDS011;42641;59.794;17.616;2023-07-30T03:40:22;4.27;;;3.80;;
56770;SDS011;42641;59.794;17.616;2023-07-30T03:42:49;4.57;;;3.83;;
56770;SDS011;42641;59.794;17.616;2023-07-30T03:45:15;4.20;;;3.87;;
56770;SDS011;42641;59.794;17.616;2023-07-30T03:47:42;5.87;;;4.10;;
56770;SDS011;42641;59.794;17.616;2023-07-30T03:50:08;4.87;;;3.50;;
56770;SDS011;42641;59.794;17.616;2023-07-30T03:52:35;4.17;;;3.77;;
56770;SDS011;42641;59.794;17.616;2023-07-30T03:55:01;4.57;;;4.00;;
56770;SDS011;42641;59.794;17.616;2023-07-30T03:57:28;4.53;;;3.67;;
56770;SDS011;42641;59.794;17.616;2023-07-30T03:59:54;4.13;;;3.73;;
56770;SDS011;42641;59.794;17.616;2023-07-30T04:02:21;4.13;;;3.60;;
56770;SDS011;42641;59.794;17.616;2023-07-30T04:04:47;4.43;;;3.70;;
56770;SDS011;42641;59.794;17.616;2023-07-30T04:07:15;3.67;;;3.38;;
56770;SDS011;42641;59.794;17.616;2023-07-30T04:09:42;4.00;;;3.43;;
56770;SDS011;42641;59.794;17.616;2023-07-30T04:12:08;4.53;;;3.95;;
56770;SDS011;42641;59.794;17.616;2023-07-30T04:14:37;5.83;;;3.90;;
56770;SDS011;42641;59.794;17.616;2023-07-30T04:17:03;5.73;;;4.60;;
56770;SDS011;42641;59.794;17.616;2023-07-30T04:19:29;4.22;;;3.80;;
56770;SDS011;42641;59.794;17.616;2023-07-30T04:21:56;5.80;;;4.13;;
56770;SDS011;42641;59.794;17.616;2023-07-30T04:24:24;4.85;;;3.40;;
56770;SDS011;42641;59.794;17.616;2023-07-30T04:26:51;4.13;;;3.73;;
56770;SDS011;42641;59.794;17.616;2023-07-30T04:29:18;4.90;;;3.75;;
56770;SDS011;42641;59.794;17.616;2023-07-30T04:31:44;3.80;;;3.50;;
56770;SDS011;42641;59.794;17.616;2023-07-30T04:34:11;5.22;;;3.90;;
56770;SDS011;42641;59.794;17.616;2023-07-30T04:36:37;5.38;;;3.75;;
56770;SDS011;42641;59.794;17.616;2023-07-30T04:39:04;4.90;;;3.50;;
56770;SDS011;42641;59.794;17.616;2023-07-30T04:41:33;4.93;;;4.05;;
56770;SDS011;42641;59.794;17.616;2023-07-30T04:43:59;4.68;;;4.22;;
56770;SDS011;42641;59.794;17.616;2023-07-30T04:46:27;5.00;;;3.90;;
56770;SDS011;42641;59.794;17.616;2023-07-30T04:48:55;4.85;;;3.22;;
56770;SDS011;42641;59.794;17.616;2023-07-30T04:51:22;4.70;;;4.20;;
56770;SDS011;42641;59.794;17.616;2023-07-30T04:53:48;4.88;;;4.47;;
56770;SDS011;42641;59.794;17.616;2023-07-30T04:56:15;4.35;;;3.95;;
56770;SDS011;42641;59.794;17.616;2023-07-30T04:58:41;6.70;;;3.88;;
56770;SDS011;42641;59.794;17.616;2023-07-30T05:01:08;5.80;;;4.22;;
56770;SDS011;42641;59.794;17.616;2023-07-30T05:03:34;5.25;;;4.60;;
56770;SDS011;42641;59.794;17.616;2023-07-30T05:06:01;4.75;;;3.88;;
56770;SDS011;42641;59.794;17.616;2023-07-30T05:08:27;4.25;;;3.55;;
56770;SDS011;42641;59.794;17.616;2023-07-30T05:10:54;8.05;;;4.50;;
56770;SDS011;42641;59.794;17.616;2023-07-30T05:13:20;7.95;;;4.30;;
56770;SDS011;42641;59.794;17.616;2023-07-30T05:15:47;5.10;;;4.35;;
56770;SDS011;42641;59.794;17.616;2023-07-30T05:18:13;6.47;;;4.22;;
56770;SDS011;42641;59.794;17.616;2023-07-30T05:20:39;4.38;;;3.97;;
56770;SDS011;42641;59.794;17.616;2023-07-30T05:23:06;6.28;;;5.00;;
56770;SDS011;42641;59.794;17.616;2023-07-30T05:25:32;5.13;;;4.60;;
56770;SDS011;42641;59.794;17.616;2023-07-30T05:27:59;5.35;;;4.25;;
56770;SDS011;42641;59.794;17.616;2023-07-30T05:30:25;4.50;;;3.88;;
56770;SDS011;42641;59.794;17.616;2023-07-30T05:32:51;4.20;;;3.80;;
56770;SDS011;42641;59.794;17.616;2023-07-30T05:35:18;4.55;;;3.90;;
56770;SDS011;42641;59.794;17.616;2023-07-30T05:37:44;4.45;;;4.05;;
56770;SDS011;42641;59.794;17.616;2023-07-30T05:40:11;4.63;;;4.15;;
56770;SDS011;42641;59.794;17.616;2023-07-30T05:42:37;4.20;;;3.80;;
56770;SDS011;42641;59.794;17.616;2023-07-30T05:45:04;4.78;;;4.15;;
56770;SDS011;42641;59.794;17.616;2023-07-30T05:47:30;8.27;;;4.57;;
56770;SDS011;42641;59.794;17.616;2023-07-30T05:49:57;4.68;;;4.28;;
56770;SDS011;42641;59.794;17.616;2023-07-30T05:52:24;5.25;;;4.72;;
56770;SDS011;42641;59.794;17.616;2023-07-30T05:54:50;7.63;;;4.80;;
56770;SDS011;42641;59.794;17.616;2023-07-30T05:57:17;5.15;;;4.38;;
56770;SDS011;42641;59.794;17.616;2023-07-30T05:59:43;5.78;;;5.00;;
56770;SDS011;42641;59.794;17.616;2023-07-30T06:02:09;4.78;;;4.38;;
56770;SDS011;42641;59.794;17.616;2023-07-30T06:04:36;4.20;;;3.80;;
56770;SDS011;42641;59.794;17.616;2023-07-30T06:07:03;4.70;;;4.05;;
56770;SDS011;42641;59.794;17.616;2023-07-30T06:09:29;4.07;;;3.63;;
56770;SDS011;42641;59.794;17.616;2023-07-30T06:11:56;5.18;;;4.20;;
56770;SDS011;42641;59.794;17.616;2023-07-30T06:14:24;4.43;;;3.95;;
56770;SDS011;42641;59.794;17.616;2023-07-30T06:16:51;4.90;;;3.90;;
56770;SDS011;42641;59.794;17.616;2023-07-30T06:19:18;7.38;;;4.30;;
56770;SDS011;42641;59.794;17.616;2023-07-30T06:21:45;4.25;;;3.88;;
56770;SDS011;42641;59.794;17.616;2023-07-30T06:24:12;4.00;;;3.70;;
56770;SDS011;42641;59.794;17.616;2023-07-30T06:26:38;4.28;;;3.85;;
56770;SDS011;42641;59.794;17.616;2023-07-30T06:29:05;4.07;;;3.67;;
56770;SDS011;42641;59.794;17.616;2023-07-30T06:31:32;3.63;;;3.30;;
56770;SDS011;42641;59.794;17.616;2023-07-30T06:33:58;4.72;;;3.83;;
56770;SDS011;42641;59.794;17.616;2023-07-30T06:36:25;7.10;;;4.03;;
56770;SDS011;42641;59.794;17.616;2023-07-30T06:38:51;4.03;;;3.70;;
56770;SDS011;42641;59.794;17.616;2023-07-30T06:41:17;5.15;;;3.70;;
56770;SDS011;42641;59.794;17.616;2023-07-30T06:43:44;3.83;;;3.40;;
56770;SDS011;42641;59.794;17.616;2023-07-30T06:46:10;4.15;;;3.50;;
56770;SDS011;42641;59.794;17.616;2023-07-30T06:48:37;4.10;;;3.50;;
56770;SDS011;42641;59.794;17.616;2023-07-30T06:51:06;4.50;;;4.10;;
56770;SDS011;42641;59.794;17.616;2023-07-30T06:53:33;4.30;;;3.50;;
56770;SDS011;42641;59.794;17.616;2023-07-30T06:55:59;4.03;;;3.30;;
56770;SDS011;42641;59.794;17.616;2023-07-30T06:58:26;3.72;;;3.42;;
56770;SDS011;42641;59.794;17.616;2023-07-30T07:00:52;4.30;;;3.78;;
56770;SDS011;42641;59.794;17.616;2023-07-30T07:03:19;4.25;;;3.85;;
56770;SDS011;42641;59.794;17.616;2023-07-30T07:05:51;3.90;;;3.50;;
56770;SDS011;42641;59.794;17.616;2023-07-30T07:08:21;4.13;;;3.72;;
56770;SDS011;42641;59.794;17.616;2023-07-30T07:10:48;3.83;;;3.53;;
56770;SDS011;42641;59.794;17.616;2023-07-30T07:13:15;4.93;;;3.40;;
56770;SDS011;42641;59.794;17.616;2023-07-30T07:15:42;3.63;;;3.33;;
56770;SDS011;42641;59.794;17.616;2023-07-30T07:18:10;7.05;;;3.63;;
56770;SDS011;42641;59.794;17.616;2023-07-30T07:20:37;5.32;;;3.45;;
56770;SDS011;42641;59.794;17.616;2023-07-30T07:23:04;4.15;;;3.75;;
56770;SDS011;42641;59.794;17.616;2023-07-30T07:25:30;4.68;;;3.60;;
56770;SDS011;42641;59.794;17.616;2023-07-30T07:27:57;5.10;;;3.40;;
56770;SDS011;42641;59.794;17.616;2023-07-30T07:30:23;5.05;;;3.35;;
56770;SDS011;42641;59.794;17.616;2023-07-30T07:32:50;3.80;;;3.42;;
56770;SDS011;42641;59.794;17.616;2023-07-30T07:35:18;3.75;;;3.45;;
56770;SDS011;42641;59.794;17.616;2023-07-30T07:37:46;4.13;;;3.72;;
56770;SDS011;42641;59.794;17.616;2023-07-30T07:40:12;4.65;;;3.55;;
56770;SDS011;42641;59.794;17.616;2023-07-30T07:42:39;6.60;;;3.47;;
56770;SDS011;42641;59.794;17.616;2023-07-30T07:45:06;3.60;;;3.30;;
56770;SDS011;42641;59.794;17.616;2023-07-30T07:47:32;4.03;;;3.67;;
56770;SDS011;42641;59.794;17.616;2023-07-30T07:49:59;3.70;;;3.40;;
56770;SDS011;42641;59.794;17.616;2023-07-30T07:52:25;7.50;;;3.97;;
56770;SDS011;42641;59.794;17.616;2023-07-30T07:54:52;3.60;;;3.30;;
56770;SDS011;42641;59.794;17.616;2023-07-30T07:57:18;4.07;;;3.10;;
56770;SDS011;42641;59.794;17.616;2023-07-30T07:59:45;4.32;;;3.38;;
56770;SDS011;42641;59.794;17.616;2023-07-30T08:02:11;3.58;;;3.28;;
56770;SDS011;42641;59.794;17.616;2023-07-30T08:04:38;3.30;;;3.00;;
56770;SDS011;42641;59.794;17.616;2023-07-30T08:07:05;3.55;;;3.25;;
56770;SDS011;42641;59.794;17.616;2023-07-30T08:09:31;3.33;;;3.03;;
56770;SDS011;42641;59.794;17.616;2023-07-30T08:11:59;3.70;;;3.40;;
56770;SDS011;42641;59.794;17.616;2023-07-30T08:14:26;4.38;;;3.15;;
56770;SDS011;42641;59.794;17.616;2023-07-30T08:16:53;4.13;;;3.30;;
56770;SDS011;42641;59.794;17.616;2023-07-30T08:19:19;3.42;;;3.13;;
56770;SDS011;42641;59.794;17.616;2023-07-30T08:21:46;4.63;;;3.60;;
56770;SDS011;42641;59.794;17.616;2023-07-30T08:24:12;3.95;;;3.40;;
56770;SDS011;42641;59.794;17.616;2023-07-30T08:26:38;3.67;;;3.38;;
56770;SDS011;42641;59.794;17.616;2023-07-30T08:29:05;3.65;;;3.03;;
56770;SDS011;42641;59.794;17.616;2023-07-30T08:31:32;4.82;;;3.78;;
56770;SDS011;42641;59.794;17.616;2023-07-30T08:33:58;3.42;;;3.13;;
56770;SDS011;42641;59.794;17.616;2023-07-30T08:36:24;4.47;;;2.70;;
56770;SDS011;42641;59.794;17.616;2023-07-30T08:38:51;3.35;;;3.05;;
56770;SDS011;42641;59.794;17.616;2023-07-30T08:41:17;3.40;;;2.97;;
56770;SDS011;42641;59.794;17.616;2023-07-30T08:43:44;3.00;;;2.80;;
56770;SDS011;42641;59.794;17.616;2023-07-30T08:46:15;3.13;;;2.83;;
56770;SDS011;42641;59.794;17.616;2023-07-30T08:48:41;3.88;;;2.95;;
56770;SDS011;42641;59.794;17.616;2023-07-30T08:51:08;3.72;;;2.97;;
56770;SDS011;42641;59.794;17.616;2023-07-30T08:53:36;3.03;;;2.72;;
56770;SDS011;42641;59.794;17.616;2023-07-30T08:56:04;3.40;;;2.85;;
56770;SDS011;42641;59.794;17.616;2023-07-30T08:58:31;3.35;;;3.00;;
56770;SDS011;42641;59.794;17.616;2023-07-30T09:00:59;2.88;;;2.67;;
56770;SDS011;42641;59.794;17.616;2023-07-30T09:03:31;3.70;;;2.63;;
56770;SDS011;42641;59.794;17.616;2023-07-30T09:06:02;2.70;;;2.50;;
56770;SDS011;42641;59.794;17.616;2023-07-30T09:08:28;4.32;;;2.70;;
56770;SDS011;42641;59.794;17.616;2023-07-30T09:10:55;3.38;;;2.92;;
56770;SDS011;42641;59.794;17.616;2023-07-30T09:13:22;3.83;;;2.67;;
56770;SDS011;42641;59.794;17.616;2023-07-30T09:15:49;2.75;;;2.55;;
56770;SDS011;42641;59.794;17.616;2023-07-30T09:18:16;2.78;;;2.58;;
56770;SDS011;42641;59.794;17.616;2023-07-30T09:20:44;4.55;;;2.63;;
56770;SDS011;42641;59.794;17.616;2023-07-30T09:23:11;3.00;;;2.70;;
56770;SDS011;42641;59.794;17.616;2023-07-30T09:25:37;3.08;;;2.80;;
56770;SDS011;42641;59.794;17.616;2023-07-30T09:39:30;4.10;;;3.67;;
56770;SDS011;42641;59.794;17.616;2023-07-30T09:44:40;3.55;;;3.22;;
56770;SDS011;42641;59.794;17.616;2023-07-30T09:47:10;3.22;;;2.92;;
56770;SDS011;42641;59.794;17.616;2023-07-30T09:49:37;3.85;;;3.45;;
56770;SDS011;42641;59.794;17.616;2023-07-30T09:52:04;3.38;;;3.08;;
56770;SDS011;42641;59.794;17.616;2023-07-30T09:54:31;3.17;;;2.97;;
56770;SDS011;42641;59.794;17.616;2023-07-30T09:56:58;3.38;;;3.00;;
56770;SDS011;42641;59.794;17.616;2023-07-30T09:59:25;5.88;;;3.30;;
56770;SDS011;42641;59.794;17.616;2023-07-30T10:01:51;3.00;;;2.70;;
56770;SDS011;42641;59.794;17.616;2023-07-30T10:04:21;3.25;;;2.95;;
56770;SDS011;42641;59.794;17.616;2023-07-30T10:06:56;2.70;;;2.50;;
56770;SDS011;42641;59.794;17.616;2023-07-30T10:09:28;3.10;;;2.90;;
56770;SDS011;42641;59.794;17.616;2023-07-30T10:12:15;2.83;;;2.63;;
56770;SDS011;42641;59.794;17.616;2023-07-30T10:14:43;3.47;;;2.80;;
56770;SDS011;42641;59.794;17.616;2023-07-30T10:17:10;4.53;;;3.08;;
56770;SDS011;42641;59.794;17.616;2023-07-30T10:19:37;3.15;;;2.65;;
56770;SDS011;42641;59.794;17.616;2023-07-30T10:22:38;3.00;;;2.70;;
56770;SDS011;42641;59.794;17.616;2023-07-30T10:24:58;4.00;;;2.67;;
56770;SDS011;42641;59.794;17.616;2023-07-30T10:27:27;2.92;;;2.72;;
56770;SDS011;42641;59.794;17.616;2023-07-30T10:30:10;4.28;;;2.90;;
56770;SDS011;42641;59.794;17.616;2023-07-30T10:32:41;2.70;;;2.50;;
56770;SDS011;42641;59.794;17.616;2023-07-30T10:35:44;4.13;;;2.78;;
56770;SDS011;42641;59.794;17.616;2023-07-30T10:38:16;4.40;;;2.70;;
56770;SDS011;42641;59.794;17.616;2023-07-30T10:43:31;3.60;;;3.30;;
56770;SDS011;42641;59.794;17.616;2023-07-30T10:46:06;3.70;;;3.30;;
56770;SDS011;42641;59.794;17.616;2023-07-30T10:48:38;2.90;;;2.70;;
56770;SDS011;42641;59.794;17.616;2023-07-30T10:51:09;3.60;;;3.20;;
56770;SDS011;42641;59.794;17.616;2023-07-30T10:53:37;3.63;;;2.80;;
56770;SDS011;42641;59.794;17.616;2023-07-30T10:56:05;5.43;;;3.00;;
56770;SDS011;42641;59.794;17.616;2023-07-30T10:58:33;4.05;;;2.70;;
56770;SDS011;42641;59.794;17.616;2023-07-30T11:01:01;3.10;;;2.90;;
56770;SDS011;42641;59.794;17.616;2023-07-30T11:03:29;3.10;;;2.88;;
56770;SDS011;42641;59.794;17.616;2023-07-30T11:05:57;2.92;;;2.70;;
56770;SDS011;42641;59.794;17.616;2023-07-30T11:11:03;4.32;;;3.17;;
56770;SDS011;42641;59.794;17.616;2023-07-30T11:13:37;2.90;;;2.70;;
56770;SDS011;42641;59.794;17.616;2023-07-30T11:16:08;3.08;;;2.78;;
56770;SDS011;42641;59.794;17.616;2023-07-30T11:18:36;5.70;;;3.17;;
56770;SDS011;42641;59.794;17.616;2023-07-30T11:21:07;6.22;;;3.60;;
56770;SDS011;42641;59.794;17.616;2023-07-30T11:23:38;3.75;;;3.45;;
56770;SDS011;42641;59.794;17.616;2023-07-30T11:26:07;4.40;;;4.00;;
56770;SDS011;42641;59.794;17.616;2023-07-30T11:28:35;5.88;;;3.60;;
56770;SDS011;42641;59.794;17.616;2023-07-30T11:33:41;4.82;;;3.28;;
56770;SDS011;42641;59.794;17.616;2023-07-30T11:36:14;4.88;;;3.63;;
56770;SDS011;42641;59.794;17.616;2023-07-30T11:38:42;5.13;;;3.13;;
56770;SDS011;42641;59.794;17.616;2023-07-30T11:41:10;4.82;;;3.85;;
56770;SDS011;42641;59.794;17.616;2023-07-30T11:43:38;4.20;;;3.80;;
56770;SDS011;42641;59.794;17.616;2023-07-30T11:48:36;3.30;;;3.00;;
56770;SDS011;42641;59.794;17.616;2023-07-30T11:51:04;5.72;;;3.00;;
56770;SDS011;42641;59.794;17.616;2023-07-30T11:53:45;3.22;;;2.75;;
56770;SDS011;42641;59.794;17.616;2023-07-30T11:56:33;3.10;;;2.65;;
56770;SDS011;42641;59.794;17.616;2023-07-30T11:59:01;3.10;;;2.67;;
56770;SDS011;42641;59.794;17.616;2023-07-30T12:01:35;4.40;;;2.88;;
56770;SDS011;42641;59.794;17.616;2023-07-30T12:04:03;3.08;;;2.70;;
56770;SDS011;42641;59.794;17.616;2023-07-30T12:09:18;3.60;;;3.00;;
56770;SDS011;42641;59.794;17.616;2023-07-30T12:12:00;6.88;;;3.00;;
56770;SDS011;42641;59.794;17.616;2023-07-30T12:14:28;5.00;;;2.80;;
56770;SDS011;42641;59.794;17.616;2023-07-30T12:17:08;5.75;;;2.95;;
56770;SDS011;42641;59.794;17.616;2023-07-30T12:19:35;4.10;;;2.85;;
56770;SDS011;42641;59.794;17.616;2023-07-30T12:22:02;5.43;;;2.47;;
56770;SDS011;42641;59.794;17.616;2023-07-30T12:24:29;4.40;;;2.63;;
56770;SDS011;42641;59.794;17.616;2023-07-30T12:26:55;3.00;;;2.55;;
56770;SDS011;42641;59.794;17.616;2023-07-30T12:29:22;3.30;;;2.78;;
56770;SDS011;42641;59.794;17.616;2023-07-30T12:31:48;3.80;;;2.42;;
56770;SDS011;42641;59.794;17.616;2023-07-30T12:34:17;5.15;;;2.50;;
56770;SDS011;42641;59.794;17.616;2023-07-30T12:36:44;3.08;;;2.25;;
56770;SDS011;42641;59.794;17.616;2023-07-30T12:39:10;2.80;;;2.60;;
56770;SDS011;42641;59.794;17.616;2023-07-30T12:41:37;3.50;;;2.80;;
56770;SDS011;42641;59.794;17.616;2023-07-30T12:44:03;5.78;;;3.38;;
56770;SDS011;42641;59.794;17.616;2023-07-30T12:46:31;4.28;;;3.25;;
56770;SDS011;42641;59.794;17.616;2023-07-30T12:48:58;3.33;;;2.40;;
56770;SDS011;42641;59.794;17.616;2023-07-30T12:51:30;5.28;;;2.80;;
56770;SDS011;42641;59.794;17.616;2023-07-30T12:53:57;5.93;;;2.83;;
56770;SDS011;42641;59.794;17.616;2023-07-30T12:56:23;4.03;;;3.00;;
56770;SDS011;42641;59.794;17.616;2023-07-30T12:58:49;4.15;;;3.00;;
56770;SDS011;42641;59.794;17.616;2023-07-30T13:01:16;4.18;;;3.05;;
56770;SDS011;42641;59.794;17.616;2023-07-30T13:03:42;5.15;;;3.40;;
56770;SDS011;42641;59.794;17.616;2023-07-30T13:06:11;4.05;;;3.05;;
56770;SDS011;42641;59.794;17.616;2023-07-30T13:08:38;5.55;;;3.15;;
56770;SDS011;42641;59.794;17.616;2023-07-30T13:11:06;5.40;;;3.53;;
56770;SDS011;42641;59.794;17.616;2023-07-30T13:13:32;5.35;;;3.53;;
56770;SDS011;42641;59.794;17.616;2023-07-30T13:15:59;5.57;;;3.60;;
56770;SDS011;42641;59.794;17.616;2023-07-30T13:18:27;4.97;;;4.13;;
56770;SDS011;42641;59.794;17.616;2023-07-30T13:20:54;6.68;;;3.25;;
56770;SDS011;42641;59.794;17.616;2023-07-30T13:23:20;4.65;;;3.88;;
56770;SDS011;42641;59.794;17.616;2023-07-30T13:25:47;5.47;;;3.70;;
56770;SDS011;42641;59.794;17.616;2023-07-30T13:28:13;4.82;;;3.80;;
56770;SDS011;42641;59.794;17.616;2023-07-30T13:30:40;4.20;;;3.80;;
56770;SDS011;42641;59.794;17.616;2023-07-30T13:33:06;4.78;;;3.80;;
56770;SDS011;42641;59.794;17.616;2023-07-30T13:35:33;5.15;;;3.50;;
56770;SDS011;42641;59.794;17.616;2023-07-30T13:37:59;4.88;;;3.65;;
56770;SDS011;42641;59.794;17.616;2023-07-30T13:40:25;5.45;;;3.58;;
56770;SDS011;42641;59.794;17.616;2023-07-30T13:42:52;5.45;;;3.38;;
56770;SDS011;42641;59.794;17.616;2023-07-30T13:45:18;4.35;;;3.90;;
56770;SDS011;42641;59.794;17.616;2023-07-30T13:47:45;5.20;;;3.50;;
56770;SDS011;42641;59.794;17.616;2023-07-30T13:50:11;4.95;;;3.75;;
56770;SDS011;42641;59.794;17.616;2023-07-30T13:52:37;5.22;;;3.72;;
56770;SDS011;42641;59.794;17.616;2023-07-30T13:55:04;3.97;;;3.25;;
56770;SDS011;42641;59.794;17.616;2023-07-30T13:57:31;3.90;;;3.50;;
56770;SDS011;42641;59.794;17.616;2023-07-30T13:59:57;5.35;;;3.47;;
56770;SDS011;42641;59.794;17.616;2023-07-30T14:02:23;5.45;;;3.55;;
56770;SDS011;42641;59.794;17.616;2023-07-30T14:04:50;5.15;;;3.75;;
56770;SDS011;42641;59.794;17.616;2023-07-30T14:07:16;4.15;;;3.40;;
56770;SDS011;42641;59.794;17.616;2023-07-30T14:09:43;3.95;;;3.55;;
56770;SDS011;42641;59.794;17.616;2023-07-30T14:12:10;3.03;;;2.72;;
56770;SDS011;42641;59.794;17.616;2023-07-30T14:14:36;4.05;;;3.58;;
56770;SDS011;42641;59.794;17.616;2023-07-30T14:17:02;4.60;;;3.25;;
56770;SDS011;42641;59.794;17.616;2023-07-30T14:19:32;4.50;;;3.22;;
56770;SDS011;42641;59.794;17.616;2023-07-30T14:21:59;3.97;;;3.47;;
56770;SDS011;42641;59.794;17.616;2023-07-30T14:24:26;3.83;;;2.95;;
56770;SDS011;42641;59.794;17.616;2023-07-30T14:26:53;3.25;;;2.95;;
56770;SDS011;42641;59.794;17.616;2023-07-30T14:29:20;5.50;;;3.13;;
56770;SDS011;42641;59.794;17.616;2023-07-30T14:31:46;4.55;;;3.17;;
56770;SDS011;42641;59.794;17.616;2023-07-30T14:34:12;3.75;;;2.70;;
56770;SDS011;42641;59.794;17.616;2023-07-30T14:36:39;4.88;;;2.70;;
56770;SDS011;42641;59.794;17.616;2023-07-30T14:39:06;2.95;;;2.60;;
56770;SDS011;42641;59.794;17.616;2023-07-30T14:41:32;2.58;;;2.38;;
56770;SDS011;42641;59.794;17.616;2023-07-30T14:43:59;2.80;;;2.60;;
56770;SDS011;42641;59.794;17.616;2023-07-30T14:46:26;2.60;;;2.40;;
56770;SDS011;42641;59.794;17.616;2023-07-30T14:51:46;2.85;;;2.55;;
56770;SDS011;42641;59.794;17.616;2023-07-30T14:54:16;3.05;;;2.53;;
56770;SDS011;42641;59.794;17.616;2023-07-30T14:59:19;2.42;;;2.22;;
56770;SDS011;42641;59.794;17.616;2023-07-30T15:01:46;3.22;;;2.90;;
56770;SDS011;42641;59.794;17.616;2023-07-30T15:04:13;2.97;;;2.63;;
56770;SDS011;42641;59.794;17.616;2023-07-30T15:06:40;2.95;;;2.60;;
56770;SDS011;42641;59.794;17.616;2023-07-30T15:09:06;2.67;;;2.45;;